createdAt,value
2019-04-27T00:00:00.769Z,15.53
2019-04-27T00:03:07.802Z,14.23
2019-04-27T00:06:13.435Z,13.67
2019-04-27T00:09:22.946Z,14.53
2019-04-27T00:12:26.544Z,13.57
2019-04-27T00:15:47.257Z,12.03
2019-04-27T00:18:56.347Z,12.47
2019-04-27T00:22:03.743Z,11.40
2019-04-27T00:25:06.053Z,10.67
2019-04-27T00:28:08.008Z,11.43
2019-04-27T00:31:10.024Z,9.83
2019-04-27T00:34:13.358Z,8.47
2019-04-27T00:37:26.374Z,8.43
2019-04-27T00:40:33.525Z,7.87
2019-04-27T00:43:35.812Z,7.00
2019-04-27T00:46:37.854Z,6.87
2019-04-27T00:49:39.808Z,7.47
2019-04-27T00:52:42.954Z,8.17
2019-04-27T00:55:49.668Z,7.17
2019-04-27T00:58:53.644Z,7.57
2019-04-27T01:02:13.915Z,7.27
2019-04-27T01:05:17.626Z,7.50
2019-04-27T01:08:19.639Z,7.53
2019-04-27T01:11:22.671Z,7.00
2019-04-27T01:14:25.322Z,7.40
2019-04-27T01:17:28.813Z,8.23
2019-04-27T01:20:30.727Z,7.03
2019-04-27T01:23:32.660Z,6.83
2019-04-27T01:26:49.951Z,6.60
2019-04-27T01:29:53.905Z,7.30
2019-04-27T01:32:55.860Z,7.07
2019-04-27T01:35:58.899Z,6.70
2019-04-27T01:39:00.935Z,6.37
2019-04-27T01:42:03.270Z,6.97
2019-04-27T01:45:08.526Z,6.77
2019-04-27T01:48:22.450Z,6.07
2019-04-27T01:51:14.346Z,5.93
2019-04-27T01:54:19.378Z,6.07
2019-04-27T01:57:21.743Z,5.60
2019-04-27T02:00:29.517Z,5.87
2019-04-27T02:03:49.916Z,6.13
2019-04-27T02:06:54.771Z,8.13
2019-04-27T02:09:56.702Z,6.70
2019-04-27T02:12:58.775Z,6.77
2019-04-27T02:16:00.774Z,7.13
2019-04-27T02:19:02.593Z,7.87
2019-04-27T02:22:04.612Z,6.73
2019-04-27T02:25:06.719Z,7.00
2019-04-27T02:28:16.479Z,7.07
2019-04-27T02:31:40.336Z,7.83
2019-04-27T02:34:53.015Z,6.60
2019-04-27T02:37:54.953Z,7.13
2019-04-27T02:41:00.549Z,7.33
2019-04-27T02:44:11.371Z,6.87
2019-04-27T02:47:13.383Z,6.30
2019-04-27T02:50:15.333Z,7.50
2019-04-27T02:53:19.699Z,6.10
2019-04-27T02:56:21.509Z,7.10
2019-04-27T02:59:23.460Z,7.27
2019-04-27T03:02:29.719Z,6.67
2019-04-27T03:05:31.015Z,6.43
2019-04-27T03:08:32.961Z,7.13
2019-04-27T03:11:36.310Z,6.70
2019-04-27T03:14:50.563Z,6.13
2019-04-27T03:17:54.461Z,6.40
2019-04-27T03:21:00.401Z,8.33
2019-04-27T03:24:02.327Z,8.73
2019-04-27T03:27:06.058Z,9.90
2019-04-27T03:30:12.224Z,10.27
2019-04-27T03:33:14.657Z,10.67
2019-04-27T03:36:16.567Z,10.50
2019-04-27T03:39:20.002Z,11.27
2019-04-27T03:42:22.524Z,10.17
2019-04-27T03:45:24.495Z,10.60
2019-04-27T03:48:26.467Z,9.50
2019-04-27T03:51:36.329Z,10.37
2019-04-27T03:54:40.322Z,9.87
2019-04-27T03:57:44.080Z,10.50
2019-04-27T04:00:45.984Z,11.63
2019-04-27T04:03:50.049Z,10.87
2019-04-27T04:06:51.856Z,11.50
2019-04-27T04:09:53.786Z,10.33
2019-04-27T04:13:01.650Z,8.80
2019-04-27T04:16:10.796Z,9.87
2019-04-27T04:19:13.431Z,9.13
2019-04-27T04:22:15.376Z,10.23
2019-04-27T04:25:17.287Z,10.47
2019-04-27T04:28:20.098Z,10.00
2019-04-27T04:31:23.744Z,10.50
2019-04-27T04:34:25.706Z,9.97
2019-04-27T04:37:29.581Z,10.20
2019-04-27T04:40:33.788Z,9.80
2019-04-27T04:43:54.017Z,10.27
2019-04-27T04:47:00.115Z,10.63
2019-04-27T04:50:11.373Z,11.57
2019-04-27T04:53:06.388Z,11.00
2019-04-27T04:56:09.020Z,11.43
2019-04-27T04:59:12.191Z,11.83
2019-04-27T05:02:14.206Z,12.67
2019-04-27T05:05:16.167Z,12.27
2019-04-27T05:08:19.060Z,13.17
2019-04-27T05:11:21.102Z,11.70
2019-04-27T05:14:22.993Z,12.50
2019-04-27T05:17:26.230Z,13.43
2019-04-27T05:20:48.563Z,11.43
2019-04-27T05:23:50.701Z,11.00
2019-04-27T05:26:52.608Z,11.37
2019-04-27T05:29:54.591Z,10.20
2019-04-27T05:32:56.494Z,10.60
2019-04-27T05:35:59.093Z,10.30
2019-04-27T05:39:01.532Z,9.70
2019-04-27T05:42:06.101Z,10.07
2019-04-27T05:45:15.321Z,10.03
2019-04-27T05:48:27.441Z,10.87
2019-04-27T05:51:22.460Z,10.53
2019-04-27T05:54:24.360Z,9.67
2019-04-27T05:57:26.485Z,10.30
2019-04-27T06:00:29.287Z,10.13
2019-04-27T06:03:31.582Z,9.73
2019-04-27T06:06:33.571Z,8.73
2019-04-27T06:09:35.507Z,10.17
2019-04-27T06:12:37.417Z,9.20
2019-04-27T06:15:39.345Z,8.47
2019-04-27T06:18:41.302Z,9.03
2019-04-27T06:21:43.258Z,8.30
2019-04-27T06:24:46.141Z,9.97
2019-04-27T06:27:49.535Z,12.70
2019-04-27T06:30:51.980Z,9.60
2019-04-27T06:33:53.910Z,9.00
2019-04-27T06:36:55.950Z,9.40
2019-04-27T06:39:59.685Z,10.60
2019-04-27T06:43:01.933Z,9.43
2019-04-27T06:46:03.902Z,9.70
2019-04-27T06:49:05.938Z,10.23
2019-04-27T06:52:08.645Z,9.80
2019-04-27T06:55:10.742Z,9.83
2019-04-27T06:58:12.756Z,8.97
2019-04-27T07:01:14.682Z,8.37
2019-04-27T07:04:16.591Z,10.10
2019-04-27T07:07:19.635Z,9.23
2019-04-27T07:10:21.521Z,10.07
2019-04-27T07:13:23.424Z,9.77
2019-04-27T07:16:25.325Z,8.67
2019-04-27T07:19:28.948Z,8.77
2019-04-27T07:22:30.904Z,9.20
2019-04-27T07:25:32.859Z,9.67
2019-04-27T07:28:35.341Z,10.53
2019-04-27T07:31:40.039Z,9.30
2019-04-27T07:34:41.976Z,9.90
2019-04-27T07:37:44.000Z,10.20
2019-04-27T07:40:45.898Z,10.73
2019-04-27T07:43:50.381Z,10.07
2019-04-27T07:47:03.296Z,8.97
2019-04-27T07:50:05.477Z,10.17
2019-04-27T07:53:08.609Z,10.50
2019-04-27T07:56:10.996Z,9.70
2019-04-27T07:59:12.939Z,10.33
2019-04-27T08:02:14.923Z,10.60
2019-04-27T08:05:16.809Z,10.80
2019-04-27T08:08:19.054Z,9.87
2019-04-27T08:11:21.343Z,10.37
2019-04-27T08:14:23.285Z,9.97
2019-04-27T08:17:25.159Z,9.30
2019-04-27T08:20:29.261Z,8.13
2019-04-27T08:23:31.025Z,9.77
2019-04-27T08:26:37.327Z,8.30
2019-04-27T08:29:41.152Z,8.57
2019-04-27T08:32:49.715Z,8.17
2019-04-27T08:35:51.972Z,7.03
2019-04-27T08:38:53.947Z,6.37
2019-04-27T08:41:55.935Z,5.90
2019-04-27T08:44:59.392Z,6.13
2019-04-27T08:48:01.676Z,6.63
2019-04-27T08:51:03.619Z,6.00
2019-04-27T08:54:06.083Z,5.47
2019-04-27T08:57:09.766Z,6.53
2019-04-27T09:00:12.173Z,6.30
2019-04-27T09:03:14.149Z,6.23
2019-04-27T09:06:16.111Z,5.37
2019-04-27T09:09:29.530Z,6.30
2019-04-27T09:12:51.838Z,5.57
2019-04-27T09:16:00.110Z,7.47
2019-04-27T09:19:16.077Z,7.53
2019-04-27T09:22:19.295Z,6.60
2019-04-27T09:25:21.876Z,7.07
2019-04-27T09:28:23.840Z,7.00
2019-04-27T09:31:25.836Z,7.50
2019-04-27T09:34:27.883Z,8.33
2019-04-27T09:37:29.833Z,8.07
2019-04-27T09:40:32.539Z,9.57
2019-04-27T09:43:34.497Z,9.03
2019-04-27T09:46:36.471Z,8.57
2019-04-27T09:49:38.651Z,9.97
2019-04-27T09:52:40.836Z,10.57
2019-04-27T09:55:44.131Z,10.47
2019-04-27T09:58:47.087Z,9.87
2019-04-27T10:01:49.256Z,10.90
2019-04-27T10:04:51.573Z,12.00
2019-04-27T10:07:53.600Z,11.53
2019-04-27T10:10:56.660Z,12.30
2019-04-27T10:13:59.120Z,13.70
2019-04-27T10:17:01.076Z,13.43
2019-04-27T10:20:05.970Z,13.13
2019-04-27T10:23:08.162Z,13.50
2019-04-27T10:26:10.116Z,14.50
2019-04-27T10:29:12.062Z,14.77
2019-04-27T10:32:13.992Z,13.10
2019-04-27T10:35:16.135Z,13.43
2019-04-27T10:38:18.313Z,14.17
2019-04-27T10:41:20.413Z,13.37
2019-04-27T10:44:22.388Z,15.13
2019-04-27T10:47:25.975Z,13.70
2019-04-27T10:50:28.346Z,14.33
2019-04-27T10:53:30.284Z,14.37
2019-04-27T10:56:32.487Z,13.47
2019-04-27T10:59:36.023Z,14.43
2019-04-27T11:02:38.250Z,14.10
2019-04-27T11:05:51.677Z,14.50
2019-04-27T11:08:53.662Z,14.57
2019-04-27T11:11:56.598Z,15.23
2019-04-27T11:14:59.328Z,16.03
2019-04-27T11:18:01.238Z,15.57
2019-04-27T11:21:03.174Z,15.97
2019-04-27T11:24:05.116Z,18.20
2019-04-27T11:27:07.069Z,16.33
2019-04-27T11:30:10.535Z,17.73
2019-04-27T11:33:12.510Z,17.13
2019-04-27T11:36:25.647Z,18.80
2019-04-27T11:39:27.749Z,18.60
2019-04-27T11:42:29.821Z,17.30
2019-04-27T11:45:31.761Z,17.03
2019-04-27T11:48:33.833Z,17.53
2019-04-27T11:51:36.605Z,17.70
2019-04-27T11:54:38.881Z,18.03
2019-04-27T11:57:41.035Z,18.17
2019-04-27T12:00:43.061Z,17.20
2019-04-27T12:03:45.066Z,16.20
2019-04-27T12:06:46.949Z,16.13
2019-04-27T12:09:48.887Z,15.70
2019-04-27T12:12:50.984Z,16.10
2019-04-27T12:15:52.965Z,16.20
2019-04-27T12:18:56.373Z,15.37
2019-04-27T12:21:58.781Z,14.40
2019-04-27T12:25:00.712Z,14.30
2019-04-27T12:28:10.193Z,14.03
2019-04-27T12:31:14.005Z,14.50
2019-04-27T12:34:16.351Z,14.50
2019-04-27T12:37:19.997Z,12.67
2019-04-27T12:40:21.913Z,13.07
2019-04-27T12:43:24.034Z,12.93
2019-04-27T12:46:25.967Z,12.90
2019-04-27T12:49:27.955Z,12.07
2019-04-27T12:52:29.874Z,12.43
2019-04-27T12:55:40.348Z,12.33
2019-04-27T12:58:50.251Z,12.67
2019-04-27T13:01:52.196Z,11.83
2019-04-27T13:04:54.133Z,12.20
2019-04-27T13:07:56.115Z,12.33
2019-04-27T13:10:58.108Z,11.20
2019-04-27T13:14:01.469Z,10.83
2019-04-27T13:17:03.442Z,10.87
2019-04-27T13:20:06.462Z,10.97
2019-04-27T13:23:08.415Z,11.27
2019-04-27T13:26:10.341Z,10.90
2019-04-27T13:29:12.255Z,9.77
2019-04-27T13:32:16.047Z,10.43
2019-04-27T13:35:18.108Z,10.97
2019-04-27T13:38:21.256Z,10.63
2019-04-27T13:41:30.406Z,10.30
2019-04-27T13:44:27.148Z,9.60
2019-04-27T13:47:30.987Z,10.27
2019-04-27T13:50:37.768Z,8.90
2019-04-27T13:53:41.459Z,9.47
2019-04-27T13:56:43.371Z,9.43
2019-04-27T13:59:45.513Z,9.27
2019-04-27T14:02:47.436Z,9.70
2019-04-27T14:05:49.534Z,9.57
2019-04-27T14:08:51.524Z,10.53
2019-04-27T14:11:55.302Z,9.53
2019-04-27T14:14:58.979Z,9.63
2019-04-27T14:18:01.600Z,8.63
2019-04-27T14:21:04.721Z,8.97
2019-04-27T14:24:06.737Z,8.10
2019-04-27T14:27:09.274Z,8.63
2019-04-27T14:30:13.506Z,10.00
2019-04-27T14:33:16.263Z,8.77
2019-04-27T14:36:18.352Z,9.00
2019-04-27T14:39:20.534Z,9.67
2019-04-27T14:42:22.739Z,8.53
2019-04-27T14:45:24.815Z,10.20
2019-04-27T14:48:29.473Z,8.63
2019-04-27T14:51:31.848Z,9.10
2019-04-27T14:54:46.039Z,7.73
2019-04-27T14:57:39.440Z,7.87
2019-04-27T15:00:41.856Z,6.47
2019-04-27T15:03:43.786Z,7.33
2019-04-27T15:06:46.743Z,5.87
2019-04-27T15:09:49.723Z,6.47
2019-04-27T15:12:55.363Z,5.53
2019-04-27T15:15:56.673Z,6.13
2019-04-27T15:19:02.425Z,6.93
2019-04-27T15:22:06.164Z,6.40
2019-04-27T15:25:13.013Z,7.73
2019-04-27T15:28:16.776Z,6.77
2019-04-27T15:31:29.683Z,6.37
2019-04-27T15:34:35.590Z,6.27
2019-04-27T15:37:41.863Z,7.30
2019-04-27T15:40:54.317Z,6.97
2019-04-27T15:43:52.159Z,6.43
2019-04-27T15:46:54.151Z,8.10
2019-04-27T15:49:56.083Z,7.57
2019-04-27T15:52:58.077Z,7.60
2019-04-27T15:56:01.597Z,7.00
2019-04-27T15:59:04.033Z,7.27
2019-04-27T16:02:11.762Z,7.53
2019-04-27T16:05:10.371Z,7.10
2019-04-27T16:08:15.261Z,6.80
2019-04-27T16:11:19.566Z,7.03
2019-04-27T16:14:20.542Z,8.10
2019-04-27T16:17:23.537Z,7.50
2019-04-27T16:20:30.218Z,6.80
2019-04-27T16:23:33.646Z,7.13
2019-04-27T16:26:33.947Z,6.63
2019-04-27T16:29:36.776Z,9.57
2019-04-27T16:32:40.382Z,13.10
2019-04-27T16:35:44.341Z,12.33
2019-04-27T16:38:50.675Z,10.23
2019-04-27T16:41:52.612Z,11.47
2019-04-27T16:44:54.493Z,9.47
2019-04-27T16:47:57.556Z,9.47
2019-04-27T16:51:01.597Z,8.90
2019-04-27T16:54:03.620Z,9.73
2019-04-27T16:57:07.919Z,8.87
2019-04-27T17:00:14.428Z,8.47
2019-04-27T17:03:18.081Z,9.67
2019-04-27T17:06:21.601Z,10.07
2019-04-27T17:09:23.811Z,9.70
2019-04-27T17:12:29.918Z,11.27
2019-04-27T17:15:53.645Z,12.97
2019-04-27T17:18:57.813Z,11.80
2019-04-27T17:21:59.012Z,12.07
2019-04-27T17:25:00.924Z,13.03
2019-04-27T17:28:07.511Z,14.17
2019-04-27T17:31:12.874Z,13.47
2019-04-27T17:34:13.737Z,13.90
2019-04-27T17:37:15.605Z,16.80
2019-04-27T17:40:17.527Z,20.27
2019-04-27T17:43:19.435Z,20.53
2019-04-27T17:46:22.033Z,23.70
2019-04-27T17:49:24.623Z,26.47
2019-04-27T17:52:27.125Z,37.43
2019-04-27T17:55:29.112Z,30.83
2019-04-27T17:58:31.042Z,30.47
2019-04-27T18:01:32.976Z,35.63
2019-04-27T18:04:37.736Z,33.00
2019-04-27T18:07:40.396Z,17.73
2019-04-27T18:10:43.348Z,19.27
2019-04-27T18:13:45.297Z,17.00
2019-04-27T18:16:48.223Z,20.07
2019-04-27T18:19:52.427Z,19.57
2019-04-27T18:23:02.898Z,24.67
2019-04-27T18:26:07.171Z,30.17
2019-04-27T18:29:09.324Z,28.17
2019-04-27T18:32:11.397Z,26.53
2019-04-27T18:35:14.859Z,25.83
2019-04-27T18:38:17.738Z,25.80
2019-04-27T18:41:22.618Z,22.70
2019-04-27T18:44:30.512Z,20.63
2019-04-27T18:47:31.245Z,19.77
2019-04-27T18:50:38.439Z,21.30
2019-04-27T18:53:40.513Z,21.87
2019-04-27T18:56:42.548Z,25.30
2019-04-27T18:59:44.604Z,24.87
2019-04-27T19:02:48.257Z,24.90
2019-04-27T19:05:50.500Z,27.23
2019-04-27T19:08:54.733Z,39.43
2019-04-27T19:11:56.868Z,27.43
2019-04-27T19:15:03.007Z,29.00
2019-04-27T19:18:06.225Z,28.93
2019-04-27T19:21:11.267Z,32.23
2019-04-27T19:24:14.316Z,31.63
2019-04-27T19:27:21.199Z,31.20
2019-04-27T19:30:28.039Z,31.17
2019-04-27T19:33:30.872Z,31.10
2019-04-27T19:36:35.388Z,30.63
2019-04-27T19:39:40.917Z,31.00
2019-04-27T19:42:43.342Z,35.20
2019-04-27T19:45:48.229Z,34.73
2019-04-27T19:48:51.621Z,38.10
2019-04-27T19:51:54.831Z,38.20
2019-04-27T19:55:00.539Z,39.87
2019-04-27T19:58:02.469Z,38.17
2019-04-27T20:01:11.895Z,38.27
2019-04-27T20:04:18.520Z,40.13
2019-04-27T20:07:20.545Z,39.33
2019-04-27T20:10:22.542Z,38.47
2019-04-27T20:13:27.517Z,36.53
2019-04-27T20:16:29.527Z,39.80
2019-04-27T20:19:35.184Z,39.97
2019-04-27T20:22:37.202Z,38.13
2019-04-27T20:25:39.192Z,38.77
2019-04-27T20:28:41.504Z,37.57
2019-04-27T20:31:43.898Z,36.10
2019-04-27T20:34:46.234Z,36.83
2019-04-27T20:37:48.168Z,35.80
2019-04-27T20:40:51.073Z,37.93
2019-04-27T20:43:54.265Z,36.40
2019-04-27T20:46:56.514Z,41.87
2019-04-27T20:49:58.439Z,38.03
2019-04-27T20:53:02.267Z,37.00
2019-04-27T20:56:04.722Z,37.47
2019-04-27T20:59:06.658Z,35.57
2019-04-27T21:02:27.364Z,34.83
2019-04-27T21:05:31.173Z,34.13
2019-04-27T21:08:35.262Z,36.23
2019-04-27T21:11:46.670Z,35.07
2019-04-27T21:14:49.777Z,33.70
2019-04-27T21:17:51.723Z,33.23
2019-04-27T21:20:53.816Z,33.90
2019-04-27T21:23:56.877Z,34.13
2019-04-27T21:26:59.597Z,32.93
2019-04-27T21:30:02.762Z,32.30
2019-04-27T21:33:05.344Z,31.30
2019-04-27T21:36:07.227Z,32.77
2019-04-27T21:39:09.126Z,32.47
2019-04-27T21:42:12.541Z,34.07
2019-04-27T21:45:17.291Z,34.07
2019-04-27T21:48:21.063Z,34.43
2019-04-27T21:51:23.016Z,33.70
2019-04-27T21:54:26.956Z,31.30
2019-04-27T21:57:28.814Z,32.03
2019-04-27T22:00:42.489Z,31.73
2019-04-27T22:03:46.056Z,32.73
2019-04-27T22:06:47.954Z,31.80
2019-04-27T22:09:51.680Z,31.07
2019-04-27T22:12:53.749Z,32.87
2019-04-27T22:15:55.694Z,32.67
2019-04-27T22:18:57.631Z,34.47
2019-04-27T22:22:01.431Z,34.43
2019-04-27T22:25:06.816Z,34.73
2019-04-27T22:28:08.729Z,36.57
2019-04-27T22:31:12.355Z,35.57
2019-04-27T22:34:14.564Z,36.17
2019-04-27T22:37:17.510Z,32.37
2019-04-27T22:40:38.353Z,32.37
2019-04-27T22:43:44.557Z,32.93
2019-04-27T22:46:48.314Z,33.90
2019-04-27T22:49:50.262Z,33.00
2019-04-27T22:52:52.247Z,33.43
2019-04-27T22:56:13.507Z,32.43
2019-04-27T22:59:32.879Z,33.97
2019-04-27T23:02:36.686Z,32.60
2019-04-27T23:05:38.696Z,29.97
2019-04-27T23:08:41.509Z,30.83
2019-04-27T23:11:44.040Z,29.77
2019-04-27T23:14:46.042Z,31.60
2019-04-27T23:17:51.760Z,31.17
2019-04-27T23:20:54.137Z,29.47
2019-04-27T23:23:56.056Z,29.07
2019-04-27T23:26:58.099Z,30.07
2019-04-27T23:30:01.433Z,30.77
2019-04-27T23:33:03.763Z,30.27
2019-04-27T23:36:05.702Z,30.87
2019-04-27T23:39:07.615Z,32.23
2019-04-27T23:42:11.524Z,31.17
2019-04-27T23:45:13.614Z,30.33
2019-04-27T23:48:15.559Z,30.90
2019-04-27T23:51:22.297Z,31.43
2019-04-27T23:54:24.188Z,30.20
2019-04-27T23:57:26.219Z,30.73
